createdAt,value
2019-02-05T00:00:58.644Z,101340.22
2019-02-05T00:03:29.918Z,101345.84
2019-02-05T00:06:03.448Z,101344.31
2019-02-05T00:08:34.453Z,101343.22
2019-02-05T00:11:13.427Z,101350.55
2019-02-05T00:13:44.642Z,101353.45
2019-02-05T00:16:16.463Z,101346.77
2019-02-05T00:18:51.774Z,101354.45
2019-02-05T00:21:26.827Z,101349.85
2019-02-05T00:23:59.765Z,101351.14
2019-02-05T00:26:39.794Z,101353.41
2019-02-05T00:29:13.434Z,101351.28
2019-02-05T00:31:44.452Z,101343.12
2019-02-05T00:34:20.220Z,101336.40
2019-02-05T00:37:01.089Z,101334.21
2019-02-05T00:39:33.221Z,101339.30
2019-02-05T00:42:05.513Z,101332.49
2019-02-05T00:44:36.365Z,101322.94
2019-02-05T00:47:09.414Z,101317.05
2019-02-05T00:49:40.252Z,101311.81
2019-02-05T00:52:13.318Z,101310.63
2019-02-05T00:54:44.262Z,101311.77
2019-02-05T00:57:15.326Z,101319.26
2019-02-05T00:59:49.384Z,101319.41
2019-02-05T01:02:24.125Z,101317.17
2019-02-05T01:04:55.307Z,101328.02
2019-02-05T01:07:26.206Z,101318.29
2019-02-05T01:09:57.076Z,101313.63
2019-02-05T01:12:30.141Z,101318.32
2019-02-05T01:15:02.216Z,101315.67
2019-02-05T01:17:36.835Z,101311.55
2019-02-05T01:20:12.286Z,101312.36
2019-02-05T01:22:43.225Z,101316.58
2019-02-05T01:25:17.698Z,101307.90
2019-02-05T01:27:55.183Z,101300.25
2019-02-05T01:30:34.702Z,101299.02
2019-02-05T01:33:10.955Z,101298.91
2019-02-05T01:35:44.683Z,101293.19
2019-02-05T01:38:17.465Z,101289.28
2019-02-05T01:40:48.358Z,101290.36
2019-02-05T01:43:19.242Z,101294.13
2019-02-05T01:45:50.056Z,101284.64
2019-02-05T01:48:20.927Z,101287.45
2019-02-05T01:50:51.960Z,101286.23
2019-02-05T01:53:22.818Z,101277.80
2019-02-05T01:55:53.558Z,101286.73
2019-02-05T01:58:24.536Z,101279.74
2019-02-05T02:00:57.577Z,101289.52
2019-02-05T02:03:28.588Z,101294.17
2019-02-05T02:05:59.359Z,101291.14
2019-02-05T02:08:33.064Z,101284.09
2019-02-05T02:11:03.999Z,101282.66
2019-02-05T02:13:35.487Z,101282.42
2019-02-05T02:16:06.765Z,101276.70
2019-02-05T02:18:37.528Z,101272.76
2019-02-05T02:21:10.101Z,101271.13
2019-02-05T02:23:40.818Z,101282.28
2019-02-05T02:26:13.716Z,101276.55
2019-02-05T02:28:44.687Z,101274.37
2019-02-05T02:31:18.305Z,101267.91
2019-02-05T02:33:49.166Z,101263.01
2019-02-05T02:36:25.583Z,101261.58
2019-02-05T02:38:56.598Z,101257.75
2019-02-05T02:41:27.759Z,101257.25
2019-02-05T02:43:58.621Z,101250.09
2019-02-05T02:46:30.721Z,101245.10
2019-02-05T02:49:03.328Z,101249.08
2019-02-05T02:51:36.525Z,101250.77
2019-02-05T02:54:13.550Z,101254.83
2019-02-05T02:56:47.342Z,101241.02
2019-02-05T02:59:21.430Z,101245.03
2019-02-05T03:01:52.251Z,101239.98
2019-02-05T03:04:24.472Z,101243.78
2019-02-05T03:06:56.653Z,101248.61
2019-02-05T03:09:29.415Z,101252.88
2019-02-05T03:12:02.666Z,101251.05
2019-02-05T03:14:33.717Z,101247.75
2019-02-05T03:17:04.853Z,101240.00
2019-02-05T03:19:35.922Z,101234.76
2019-02-05T03:22:06.863Z,101240.02
2019-02-05T03:24:38.216Z,101246.54
2019-02-05T03:27:17.235Z,101241.16
2019-02-05T03:29:41.488Z,101251.13
2019-02-05T03:32:14.343Z,101243.03
2019-02-05T03:34:45.583Z,101241.27
2019-02-05T03:37:16.350Z,101244.86
2019-02-05T03:39:47.105Z,101249.17
2019-02-05T03:42:19.355Z,101256.72
2019-02-05T03:44:50.107Z,101250.36
2019-02-05T03:47:21.353Z,101252.35
2019-02-05T03:49:52.979Z,101255.25
2019-02-05T03:52:54.636Z,101264.98
2019-02-05T03:56:01.301Z,101269.89
2019-02-05T03:59:24.836Z,101268.98
2019-02-05T04:02:35.456Z,101261.70
2019-02-05T04:05:50.276Z,101255.59
2019-02-05T04:09:11.564Z,101246.14
2019-02-05T04:12:20.883Z,101246.20
2019-02-05T04:15:29.816Z,101257.14
2019-02-05T04:18:45.527Z,101254.97
2019-02-05T04:22:20.751Z,101259.64
2019-02-05T04:25:44.838Z,101260.70
2019-02-05T04:29:00.647Z,101275.73
2019-02-05T04:32:26.027Z,101284.36
2019-02-05T04:35:59.273Z,101292.64
2019-02-05T04:39:28.879Z,101299.00
2019-02-05T04:42:48.264Z,101305.22
2019-02-05T04:46:20.891Z,101304.67
2019-02-05T04:50:29.378Z,101300.81
2019-02-05T04:53:44.147Z,101293.64
2019-02-05T04:56:59.321Z,101284.44
2019-02-05T05:00:24.479Z,101282.88
2019-02-05T05:03:51.399Z,101282.23
2019-02-05T05:07:31.336Z,101264.39
2019-02-05T05:10:05.191Z,101265.42
2019-02-05T05:12:36.118Z,101270.67
2019-02-05T05:15:12.652Z,101266.15
2019-02-05T05:17:43.917Z,101264.11
2019-02-05T05:20:17.468Z,101259.41
2019-02-05T05:22:51.681Z,101253.55
2019-02-05T05:25:24.534Z,101259.12
2019-02-05T05:28:10.168Z,101264.37
2019-02-05T05:30:43.328Z,101254.13
2019-02-05T05:33:19.704Z,101254.34
2019-02-05T05:36:04.193Z,101252.05
2019-02-05T05:38:38.303Z,101237.42
2019-02-05T05:41:12.694Z,101235.80
2019-02-05T05:43:45.335Z,101240.30
2019-02-05T05:46:16.126Z,101237.53
2019-02-05T05:48:50.057Z,101238.88
2019-02-05T05:51:21.295Z,101247.14
2019-02-05T05:53:55.179Z,101247.94
2019-02-05T05:56:31.869Z,101239.48
2019-02-05T05:59:04.915Z,101236.59
2019-02-05T06:01:44.159Z,101237.56
2019-02-05T06:04:19.237Z,101236.09
2019-02-05T06:06:56.906Z,101232.08
2019-02-05T06:09:29.981Z,101239.02
2019-02-05T06:12:00.864Z,101243.97
2019-02-05T06:14:32.602Z,101242.56
2019-02-05T06:17:03.521Z,101242.05
2019-02-05T06:19:40.078Z,101246.00
2019-02-05T06:22:11.533Z,101233.58
2019-02-05T06:24:42.499Z,101238.20
2019-02-05T06:27:14.349Z,101245.91
2019-02-05T06:29:45.266Z,101245.67
2019-02-05T06:32:18.305Z,101248.29
2019-02-05T06:34:52.233Z,101244.77
2019-02-05T06:37:31.179Z,101244.53
2019-02-05T06:40:02.071Z,101237.09
2019-02-05T06:42:35.876Z,101250.59
2019-02-05T06:45:08.934Z,101244.22
2019-02-05T06:47:40.292Z,101234.47
2019-02-05T06:50:17.394Z,101237.63
2019-02-05T06:52:49.889Z,101241.97
2019-02-05T06:55:20.824Z,101249.23
2019-02-05T06:57:56.186Z,101241.30
2019-02-05T07:00:34.851Z,101251.38
2019-02-05T07:03:06.334Z,101245.03
2019-02-05T07:05:41.005Z,101250.82
2019-02-05T07:08:13.198Z,101242.60
2019-02-05T07:10:50.259Z,101244.30
2019-02-05T07:13:31.455Z,101240.07
2019-02-05T07:16:20.743Z,101239.20
2019-02-05T07:18:52.804Z,101250.65
2019-02-05T07:21:38.837Z,101245.43
2019-02-05T07:24:55.454Z,101245.83
2019-02-05T07:26:53.549Z,101239.86
2019-02-05T07:29:41.786Z,101240.71
2019-02-05T07:32:31.807Z,101244.47
2019-02-05T07:35:09.600Z,101255.13
2019-02-05T07:37:46.005Z,101264.34
2019-02-05T07:40:38.219Z,101281.55
2019-02-05T07:43:18.486Z,101278.87
2019-02-05T07:45:45.069Z,101295.42
2019-02-05T07:48:42.819Z,101292.94
2019-02-05T07:51:20.561Z,101306.15
2019-02-05T07:54:00.195Z,101299.23
2019-02-05T07:56:39.196Z,101302.67
2019-02-05T07:59:14.575Z,101304.94
2019-02-05T08:01:51.540Z,101315.57
2019-02-05T08:04:31.746Z,101308.34
2019-02-05T08:07:16.094Z,101319.28
2019-02-05T08:09:46.168Z,101321.59
2019-02-05T08:12:29.724Z,101315.45
2019-02-05T08:15:09.385Z,101311.50
2019-02-05T08:18:29.984Z,101317.28
2019-02-05T08:21:24.793Z,101319.81
2019-02-05T08:24:01.673Z,101322.27
2019-02-05T08:26:38.447Z,101315.25
2019-02-05T08:29:21.462Z,101315.56
2019-02-05T08:31:51.697Z,101328.33
2019-02-05T08:34:31.547Z,101325.84
2019-02-05T08:37:18.149Z,101332.95
2019-02-05T08:40:05.125Z,101328.77
2019-02-05T08:42:59.134Z,101336.26
2019-02-05T08:45:56.726Z,101338.67
2019-02-05T08:48:32.764Z,101337.43
2019-02-05T08:51:07.379Z,101348.55
2019-02-05T08:53:43.200Z,101354.63
2019-02-05T08:56:23.944Z,101349.25
2019-02-05T08:59:02.428Z,101348.94
2019-02-05T09:01:46.534Z,101352.88
2019-02-05T09:04:26.558Z,101353.56
2019-02-05T09:07:08.855Z,101360.30
2019-02-05T09:09:43.891Z,101355.12
2019-02-05T09:12:31.393Z,101350.94
2019-02-05T09:15:29.169Z,101353.02
2019-02-05T09:17:55.095Z,101345.00
2019-02-05T09:20:33.197Z,101349.10
2019-02-05T09:23:21.919Z,101342.56
2019-02-05T09:26:02.447Z,101339.89
2019-02-05T09:28:42.858Z,101340.94
2019-02-05T09:31:38.270Z,101347.46
2019-02-05T09:34:18.276Z,101347.86
2019-02-05T09:37:10.859Z,101348.77
2019-02-05T09:39:58.973Z,101362.09
2019-02-05T09:42:29.490Z,101355.67
2019-02-05T09:45:19.974Z,101366.09
2019-02-05T09:47:58.839Z,101366.66
2019-02-05T09:50:44.332Z,101365.77
2019-02-05T09:53:13.590Z,101372.47
2019-02-05T09:55:54.137Z,101381.28
2019-02-05T09:58:32.079Z,101374.83
2019-02-05T10:01:04.710Z,101380.58
2019-02-05T10:03:46.193Z,101383.46
2019-02-05T10:06:18.493Z,101384.23
2019-02-05T10:08:56.414Z,101383.16
2019-02-05T10:11:35.940Z,101390.46
2019-02-05T10:14:08.906Z,101400.39
2019-02-05T10:16:46.392Z,101398.53
2019-02-05T10:19:26.695Z,101399.83
2019-02-05T10:21:58.056Z,101388.30
2019-02-05T10:24:56.060Z,101389.11
2019-02-05T10:27:32.251Z,101386.70
2019-02-05T10:30:10.608Z,101383.90
2019-02-05T10:32:48.291Z,101387.23
2019-02-05T10:35:24.709Z,101390.75
2019-02-05T10:40:46.456Z,101392.07
2019-02-05T10:43:25.736Z,101392.66
2019-02-05T10:46:05.835Z,101394.42
2019-02-05T10:48:40.666Z,101396.16
2019-02-05T10:51:23.978Z,101404.28
2019-02-05T10:53:57.334Z,101396.98
2019-02-05T10:56:50.989Z,101394.12
2019-02-05T10:59:33.148Z,101400.93
2019-02-05T11:05:26.816Z,101392.72
2019-02-05T11:08:12.895Z,101393.92
2019-02-05T11:10:46.269Z,101392.73
2019-02-05T11:13:24.833Z,101397.05
2019-02-05T11:15:54.654Z,101398.81
2019-02-05T11:18:35.097Z,101394.48
2019-02-05T11:21:06.415Z,101390.51
2019-02-05T11:23:39.158Z,101390.09
2019-02-05T11:26:19.886Z,101392.66
2019-02-05T11:28:58.576Z,101394.52
2019-02-05T11:31:39.799Z,101389.81
2019-02-05T11:34:16.602Z,101397.24
2019-02-05T11:36:50.275Z,101396.58
2019-02-05T11:39:42.792Z,101397.09
2019-02-05T11:42:27.471Z,101401.42
2019-02-05T11:45:02.530Z,101397.92
2019-02-05T11:48:03.137Z,101392.84
2019-02-05T11:51:32.801Z,101389.36
2019-02-05T11:54:03.901Z,101383.30
2019-02-05T11:56:47.102Z,101379.57
2019-02-05T11:59:23.803Z,101377.09
2019-02-05T12:01:58.806Z,101381.16
2019-02-05T12:04:32.219Z,101371.72
2019-02-05T12:07:11.978Z,101370.77
2019-02-05T12:09:51.147Z,101366.72
2019-02-05T12:12:33.521Z,101359.97
2019-02-05T12:15:09.507Z,101364.25
2019-02-05T12:17:44.360Z,101361.05
2019-02-05T12:20:23.325Z,101362.63
2019-02-05T12:22:57.549Z,101363.70
2019-02-05T12:25:35.407Z,101368.86
2019-02-05T12:28:06.346Z,101366.27
2019-02-05T12:30:44.959Z,101362.92
2019-02-05T12:33:42.603Z,101361.64
2019-02-05T12:36:00.037Z,101359.50
2019-02-05T12:38:36.385Z,101355.45
2019-02-05T12:41:13.731Z,101345.73
2019-02-05T12:44:12.908Z,101342.59
2019-02-05T12:46:50.438Z,101341.97
2019-02-05T12:49:25.146Z,101330.52
2019-02-05T12:54:53.481Z,101325.70
2019-02-05T12:57:27.514Z,101325.42
2019-02-05T13:00:12.781Z,101335.08
2019-02-05T13:02:59.515Z,101333.03
2019-02-05T13:05:40.605Z,101334.63
2019-02-05T13:08:22.109Z,101336.70
2019-02-05T13:10:57.857Z,101331.14
2019-02-05T13:13:31.783Z,101330.88
2019-02-05T13:16:43.252Z,101328.19
2019-02-05T13:19:16.936Z,101327.70
2019-02-05T13:21:53.114Z,101327.12
2019-02-05T13:24:27.826Z,101336.19
2019-02-05T13:27:06.330Z,101333.50
2019-02-05T13:29:44.334Z,101333.78
2019-02-05T13:32:17.657Z,101338.43
2019-02-05T13:34:53.640Z,101338.33
2019-02-05T13:37:44.918Z,101340.92
2019-02-05T13:40:36.159Z,101346.66
2019-02-05T13:43:12.055Z,101356.22
2019-02-05T13:45:58.468Z,101354.97
2019-02-05T13:48:47.689Z,101362.39
2019-02-05T13:51:33.196Z,101362.83
2019-02-05T13:54:18.271Z,101364.26
2019-02-05T13:56:53.661Z,101363.72
2019-02-05T14:00:10.276Z,101375.96
2019-02-05T14:02:49.154Z,101366.63
2019-02-05T14:05:29.723Z,101363.35
2019-02-05T14:08:06.386Z,101373.36
2019-02-05T14:10:44.043Z,101369.26
2019-02-05T14:13:16.569Z,101372.05
2019-02-05T14:15:51.195Z,101367.77
2019-02-05T14:18:24.361Z,101376.28
2019-02-05T14:20:56.875Z,101373.30
2019-02-05T14:23:28.306Z,101379.42
2019-02-05T14:26:08.955Z,101384.27
2019-02-05T14:28:44.359Z,101384.88
2019-02-05T14:31:31.073Z,101393.41
2019-02-05T14:34:08.594Z,101390.50
2019-02-05T14:36:46.241Z,101393.20
2019-02-05T14:39:29.210Z,101391.02
2019-02-05T14:42:04.983Z,101386.67
2019-02-05T14:44:42.502Z,101389.77
2019-02-05T14:47:13.562Z,101391.40
2019-02-05T14:49:46.008Z,101398.28
2019-02-05T14:52:28.615Z,101394.52
2019-02-05T14:55:00.919Z,101397.39
2019-02-05T14:57:50.490Z,101389.92
2019-02-05T15:00:44.407Z,101394.26
2019-02-05T15:03:16.340Z,101390.44
2019-02-05T15:05:53.712Z,101394.58
2019-02-05T15:08:28.127Z,101395.53
2019-02-05T15:11:10.946Z,101399.64
2019-02-05T15:13:49.173Z,101404.56
2019-02-05T15:16:39.258Z,101411.25
2019-02-05T15:19:20.937Z,101408.59
2019-02-05T15:21:53.669Z,101407.33
2019-02-05T15:24:37.149Z,101411.31
2019-02-05T15:27:13.077Z,101412.87
2019-02-05T15:30:06.460Z,101410.55
2019-02-05T15:33:10.203Z,101412.87
2019-02-05T15:36:06.571Z,101413.45
2019-02-05T15:38:58.507Z,101419.67
2019-02-05T15:41:52.009Z,101419.23
2019-02-05T15:44:38.544Z,101423.86
2019-02-05T15:47:40.956Z,101423.13
2019-02-05T15:50:20.318Z,101426.97
2019-02-05T15:52:59.402Z,101425.43
2019-02-05T15:55:50.892Z,101423.02
2019-02-05T15:58:49.733Z,101424.62
2019-02-05T16:02:06.821Z,101427.88
2019-02-05T16:04:20.466Z,101427.34
2019-02-05T16:06:57.504Z,101433.72
2019-02-05T16:09:43.093Z,101432.50
2019-02-05T16:12:43.157Z,101427.45
2019-02-05T16:15:07.254Z,101429.48
2019-02-05T16:17:47.283Z,101431.61
2019-02-05T16:20:30.407Z,101421.89
2019-02-05T16:23:06.884Z,101427.54
2019-02-05T16:25:50.180Z,101424.78
2019-02-05T16:28:39.732Z,101435.98
2019-02-05T16:31:20.232Z,101436.03
2019-02-05T16:34:03.112Z,101437.52
2019-02-05T16:36:35.807Z,101440.95
2019-02-05T16:39:17.204Z,101442.92
2019-02-05T16:42:01.601Z,101448.27
2019-02-05T16:44:33.634Z,101448.53
2019-02-05T16:47:12.830Z,101449.66
2019-02-05T16:49:47.923Z,101454.41
2019-02-05T16:52:20.532Z,101455.09
2019-02-05T16:55:05.498Z,101456.25
2019-02-05T16:57:38.792Z,101459.29
2019-02-05T17:00:24.164Z,101463.23
2019-02-05T17:02:57.324Z,101467.34
2019-02-05T17:05:36.812Z,101466.25
2019-02-05T17:08:15.348Z,101466.53
2019-02-05T17:10:47.171Z,101467.87
2019-02-05T17:13:20.780Z,101470.14
2019-02-05T17:15:58.785Z,101480.41
2019-02-05T17:18:30.163Z,101480.97
2019-02-05T17:21:03.044Z,101483.39
2019-02-05T17:27:32.251Z,101497.30
2019-02-05T17:30:08.145Z,101493.58
2019-02-05T17:32:40.635Z,101493.08
2019-02-05T17:35:20.469Z,101489.67
2019-02-05T17:41:07.855Z,101490.77
2019-02-05T17:43:40.737Z,101486.38
2019-02-05T17:46:21.023Z,101486.81
2019-02-05T17:49:15.341Z,101498.04
2019-02-05T17:52:16.477Z,101491.05
2019-02-05T17:54:51.785Z,101497.89
2019-02-05T17:57:48.967Z,101504.27
2019-02-05T18:01:04.611Z,101503.10
2019-02-05T18:03:49.736Z,101505.63
2019-02-05T18:06:34.561Z,101510.67
2019-02-05T18:09:36.372Z,101506.52
2019-02-05T18:15:01.041Z,101513.95
2019-02-05T18:17:40.286Z,101512.13
2019-02-05T18:20:26.583Z,101517.59
2019-02-05T18:23:05.025Z,101517.44
2019-02-05T18:25:36.154Z,101511.45
2019-02-05T18:28:19.490Z,101515.64
2019-02-05T18:30:50.706Z,101514.28
2019-02-05T18:33:27.626Z,101509.66
2019-02-05T18:36:33.254Z,101510.41
2019-02-05T18:38:56.154Z,101512.76
2019-02-05T18:41:28.762Z,101512.78
2019-02-05T18:43:59.929Z,101511.31
2019-02-05T18:46:44.914Z,101512.09
2019-02-05T18:49:21.580Z,101507.05
2019-02-05T18:51:57.324Z,101502.72
2019-02-05T18:54:37.509Z,101501.90
2019-02-05T18:57:11.103Z,101500.76
2019-02-05T18:59:47.983Z,101509.44
2019-02-05T19:02:19.028Z,101504.83
2019-02-05T19:08:19.326Z,101510.41
2019-02-05T19:08:50.439Z,101506.12
2019-02-05T19:11:35.764Z,101511.78
2019-02-05T19:14:29.124Z,101505.22
2019-02-05T19:17:07.681Z,101510.34
2019-02-05T19:19:42.369Z,101513.38
2019-02-05T19:22:22.088Z,101506.84
2019-02-05T19:25:03.933Z,101509.55
2019-02-05T19:27:34.566Z,101508.88
2019-02-05T19:30:11.937Z,101512.28
2019-02-05T19:32:49.603Z,101510.36
2019-02-05T19:35:28.621Z,101514.00
2019-02-05T19:38:00.011Z,101517.55
2019-02-05T19:40:31.116Z,101527.69
2019-02-05T19:43:05.966Z,101527.84
2019-02-05T19:45:59.853Z,101525.80
2019-02-05T19:52:48.642Z,101527.12
2019-02-05T19:55:23.823Z,101526.97
2019-02-05T19:57:59.605Z,101530.98
2019-02-05T20:01:20.840Z,101532.91
2019-02-05T20:03:59.471Z,101532.28
2019-02-05T20:06:30.334Z,101528.61
2019-02-05T20:11:02.838Z,101532.25
2019-02-05T20:12:33.261Z,101539.88
2019-02-05T20:20:16.713Z,101538.20
2019-02-05T20:30:34.002Z,101547.45
2019-02-05T20:33:21.625Z,101544.76
2019-02-05T20:36:05.724Z,101546.40
2019-02-05T20:39:31.145Z,101543.11
2019-02-05T20:41:56.043Z,101547.41
2019-02-05T20:44:45.437Z,101546.13
2019-02-05T20:47:26.959Z,101551.68
2019-02-05T20:50:28.041Z,101555.98
2019-02-05T20:52:57.757Z,101554.27
2019-02-05T20:55:53.452Z,101553.91
2019-02-05T21:02:24.234Z,101553.88
2019-02-05T21:05:45.693Z,101556.53
2019-02-05T21:08:14.322Z,101557.43
2019-02-05T21:10:38.859Z,101554.26
2019-02-05T21:13:26.258Z,101551.67
2019-02-05T21:16:51.681Z,101560.62
2019-02-05T21:19:32.443Z,101553.67
2019-02-05T21:22:49.205Z,101547.88
2019-02-05T21:28:43.510Z,101553.08
2019-02-05T21:31:29.613Z,101554.68
2019-02-05T21:34:56.072Z,101558.36
2019-02-05T21:37:36.587Z,101558.52
2019-02-05T21:40:31.423Z,101556.95
2019-02-05T21:43:36.016Z,101549.40
2019-02-05T21:46:21.466Z,101552.14
2019-02-05T21:48:49.139Z,101552.30
2019-02-05T21:56:48.063Z,101547.48
2019-02-05T21:58:02.599Z,101551.71
2019-02-05T22:01:32.309Z,101545.92
2019-02-05T22:04:12.198Z,101549.88
2019-02-05T22:06:46.243Z,101544.59
2019-02-05T22:09:28.113Z,101543.62
2019-02-05T22:12:16.846Z,101545.77
2019-02-05T22:14:59.263Z,101548.36
2019-02-05T22:17:38.123Z,101539.95
2019-02-05T22:20:25.733Z,101544.59
2019-02-05T22:23:07.629Z,101538.73
2019-02-05T22:25:45.130Z,101542.56
2019-02-05T22:28:35.083Z,101542.33
2019-02-05T22:31:09.946Z,101553.13
2019-02-05T22:33:45.202Z,101544.91
2019-02-05T22:36:22.693Z,101549.09
2019-02-05T22:38:57.583Z,101550.39
2019-02-05T22:41:44.757Z,101548.00
2019-02-05T22:44:29.954Z,101549.61
2019-02-05T22:46:55.580Z,101551.99
2019-02-05T22:49:33.575Z,101548.70
2019-02-05T22:52:04.591Z,101557.85
2019-02-05T22:54:37.541Z,101549.87
2019-02-05T22:57:10.798Z,101548.14
2019-02-05T22:59:45.442Z,101544.55
2019-02-05T23:02:22.661Z,101547.40
2019-02-05T23:05:55.668Z,101547.98
2019-02-05T23:08:47.075Z,101544.27
2019-02-05T23:12:13.113Z,101542.93
2019-02-05T23:14:59.624Z,101545.47
2019-02-05T23:17:34.321Z,101537.81
2019-02-05T23:20:10.320Z,101538.48
2019-02-05T23:22:41.411Z,101537.11
2019-02-05T23:25:22.827Z,101536.95
2019-02-05T23:27:56.374Z,101539.23
2019-02-05T23:30:31.451Z,101541.66
2019-02-05T23:33:02.555Z,101542.33
2019-02-05T23:35:34.053Z,101540.88
2019-02-05T23:38:06.547Z,101540.92
2019-02-05T23:40:41.149Z,101543.34
2019-02-05T23:43:20.661Z,101538.61
2019-02-05T23:46:21.824Z,101536.27
2019-02-05T23:48:37.180Z,101534.50
2019-02-05T23:51:09.724Z,101535.09
2019-02-05T23:53:44.764Z,101531.84
2019-02-05T23:56:25.656Z,101533.83
2019-02-05T23:59:11.126Z,101537.55
